METAR AND TAF INFORMATION
METAR FOR ELLX
ADDS - METARS form results

(1705 UTC 21 February 2018)
Data provider http://aviationweather.gov/adds/metars/
 
METAR text: ELLX 211650Z 03014KT CAVOK 03/M05 Q1019 NOSIG
Conditions at: ELLX (LUXEMBOURG (AUT), LU) observed 1650 UTC 21 February 2018
Temperature: 3.0°C (37°F)
Dewpoint: -5.0°C (23°F) [RH = 56%]
Pressure (altimeter): 30.09 inches Hg (1019.0 mb)
Winds: from the NNE (30 degrees) at 16 MPH (14 knots; 7.3 m/s)
Visibility: 6 or more miles (10+ km)
Ceiling: ceiling and visibility are OK
Clouds: unknown
Weather: no significant weather observed at this time

METAR text: ELLX 211620Z 02013KT 360V070 CAVOK 04/M06 Q1019 NOSIG
Conditions at: ELLX (LUXEMBOURG (AUT), LU) observed 1620 UTC 21 February 2018
Temperature: 4.0°C (39°F)
Dewpoint: -6.0°C (21°F) [RH = 48%]
Pressure (altimeter): 30.09 inches Hg (1019.0 mb)
Winds: from the NNE (20 degrees) at 15 MPH (13 knots; 6.8 m/s)
Visibility: 6 or more miles (10+ km)
Ceiling: ceiling and visibility are OK
Clouds: unknown
Weather: no significant weather observed at this time

Forecast for: ELLX (LUXEMBOURG (AUT), LU)
Text: TAF ELLX 211100Z 2112/2218 04015KT 7000 NSC
Forecast period: 1200 UTC 21 February 2018 to 1800 UTC 22 February 2018
Forecast type: FROM: standard forecast or significant change
Winds: from the NE (40 degrees) at 17 MPH (15 knots; 7.8 m/s)
Visibility: 4 miles (7 km)
Clouds: not forecast
Weather: no significant weather forecast for this period
Text: TEMPO 2118/2206 05008KT
Forecast period: 1800 UTC 21 February 2018 to 0600 UTC 22 February 2018
Forecast type: TEMPORARY: The following changes expected for less than half the time period
Winds: from the NE (50 degrees) at 9 MPH (8 knots; 4.2 m/s)
Weather: no significant weather forecast for this period
Text: PROB40 2121/2209 4500 MIFG
Forecast period: 2100 UTC 21 February 2018 to 0900 UTC 22 February 2018
Forecast type: PROBABLE: 40 percent likelihood of the following during this time
Visibility: 2.80 miles (4.51 km)
Weather: MIFG  (shallow fog)

 AIRPORT MAP

 RUNWAY INFORMATION
Runway 06 Runway length 13123 ft Runway width 197 ft
Runway elevation 1158 ft Runway displaced threshold 0 ft Runway heading 60
Runway 24 Runway length 13123 ft Runway width 197 ft
Runway elevation 1214 ft Runway displaced threshold 0 ft Runway heading 240

 AIRPORT FREQUENCIES
Type APP Name APP Frequency 118.9 MHZ
Type ATIS Name ATIS Frequency 135.55 MHZ
Type TWR Name TWR Frequency 118.1 MHZ

 AIRPORT NEAR NAVIGATION AIDS